createdAt,value
2022-11-12T00:00:44.555Z,12.40
2022-11-12T00:03:31.588Z,12.40
2022-11-12T00:06:21.350Z,12.10
2022-11-12T00:09:09.992Z,12.20
2022-11-12T00:11:59.602Z,12.00
2022-11-12T00:14:46.552Z,11.80
2022-11-12T00:17:33.855Z,11.80
2022-11-12T00:20:21.382Z,11.60
2022-11-12T00:23:08.863Z,11.80
2022-11-12T00:26:03.895Z,11.80
2022-11-12T00:28:50.895Z,11.80
2022-11-12T00:31:38.269Z,11.60
2022-11-12T00:34:25.708Z,11.80
2022-11-12T00:37:14.914Z,11.80
2022-11-12T00:40:01.942Z,11.70
2022-11-12T00:42:51.563Z,11.90
2022-11-12T00:45:40.718Z,11.90
2022-11-12T00:48:28.530Z,11.90
2022-11-12T00:51:15.940Z,12.10
2022-11-12T00:54:03.223Z,12.20
2022-11-12T00:56:50.210Z,12.10
2022-11-12T00:59:39.001Z,11.80
2022-11-12T01:02:26.057Z,11.80
2022-11-12T01:05:13.411Z,11.80
2022-11-12T01:08:00.834Z,11.70
2022-11-12T01:10:48.300Z,11.60
2022-11-12T01:13:38.866Z,11.60
2022-11-12T01:16:33.562Z,11.60
2022-11-12T01:19:20.984Z,11.60
2022-11-12T01:22:08.258Z,11.60
2022-11-12T01:24:55.781Z,11.80
2022-11-12T01:27:42.727Z,11.60
2022-11-12T01:30:30.201Z,11.60
2022-11-12T01:33:19.000Z,11.60
2022-11-12T01:36:09.201Z,11.30
2022-11-12T01:38:56.882Z,11.30
2022-11-12T01:41:45.202Z,10.90
2022-11-12T01:44:33.106Z,10.80
2022-11-12T01:47:23.132Z,10.90
2022-11-12T01:50:23.096Z,10.90
2022-11-12T01:53:12.745Z,10.90
2022-11-12T01:56:01.195Z,10.70
2022-11-12T01:58:50.624Z,11.00
2022-11-12T02:01:37.933Z,11.10
2022-11-12T02:04:26.960Z,11.10
2022-11-12T02:07:15.885Z,11.00
2022-11-12T02:10:04.785Z,11.00
2022-11-12T02:13:11.243Z,11.00
2022-11-12T02:15:59.205Z,11.30
2022-11-12T02:18:46.499Z,11.10
2022-11-12T02:21:36.058Z,11.00
2022-11-12T02:24:35.379Z,10.80
2022-11-12T02:27:23.011Z,11.10
2022-11-12T02:30:11.072Z,11.00
2022-11-12T02:32:58.296Z,11.20
2022-11-12T02:35:45.682Z,11.30
2022-11-12T02:38:34.503Z,11.30
2022-11-12T02:41:21.765Z,11.10
2022-11-12T02:44:10.965Z,11.10
2022-11-12T02:46:58.076Z,11.20
2022-11-12T02:49:45.865Z,11.20
2022-11-12T02:52:33.146Z,11.10
2022-11-12T02:55:21.742Z,11.00
2022-11-12T02:58:09.000Z,11.10
2022-11-12T03:00:56.924Z,11.00
2022-11-12T03:03:44.302Z,10.90
2022-11-12T03:06:31.705Z,11.00
2022-11-12T03:09:19.195Z,11.10
2022-11-12T03:12:07.805Z,11.20
2022-11-12T03:14:56.794Z,11.20
2022-11-12T03:17:45.855Z,11.20
2022-11-12T03:20:34.857Z,11.00
2022-11-12T03:23:21.864Z,10.90
2022-11-12T03:26:09.161Z,11.10
2022-11-12T03:28:57.865Z,11.10
2022-11-12T03:31:45.225Z,11.00
2022-11-12T03:34:32.338Z,10.80
2022-11-12T03:37:19.631Z,11.00
2022-11-12T03:40:08.256Z,11.00
2022-11-12T03:42:55.615Z,10.90
2022-11-12T03:45:44.159Z,10.90
2022-11-12T03:48:31.275Z,11.10
2022-11-12T03:51:19.195Z,11.20
2022-11-12T03:54:06.443Z,11.30
2022-11-12T03:56:53.311Z,11.30
2022-11-12T03:59:40.564Z,11.10
2022-11-12T04:02:47.800Z,11.20
2022-11-12T04:05:52.280Z,11.30
2022-11-12T04:08:39.335Z,11.40
2022-11-12T04:11:26.607Z,11.20
2022-11-12T04:14:12.758Z,11.20
2022-11-12T04:17:16.904Z,11.30
2022-11-12T04:20:23.707Z,11.30
2022-11-12T04:23:11.048Z,11.20
2022-11-12T04:26:15.761Z,11.20
2022-11-12T04:29:20.068Z,11.40
2022-11-12T04:32:08.366Z,11.30
2022-11-12T04:34:55.404Z,11.40
2022-11-12T04:37:47.187Z,11.40
2022-11-12T04:40:52.411Z,11.50
2022-11-12T04:44:17.904Z,11.50
2022-11-12T04:47:05.445Z,11.50
2022-11-12T04:49:54.815Z,11.70
2022-11-12T04:52:43.674Z,11.70
2022-11-12T04:55:30.704Z,11.70
2022-11-12T04:58:18.204Z,11.70
2022-11-12T05:01:24.236Z,11.70
2022-11-12T05:04:11.374Z,11.70
2022-11-12T05:07:00.621Z,11.80
2022-11-12T05:09:49.574Z,11.80
2022-11-12T05:12:39.035Z,11.70
2022-11-12T05:15:26.543Z,11.70
2022-11-12T05:18:14.195Z,11.80
2022-11-12T05:21:22.214Z,11.80
2022-11-12T05:24:17.831Z,11.70
2022-11-12T05:27:20.806Z,11.70
2022-11-12T05:30:09.586Z,12.20
2022-11-12T05:32:56.744Z,12.00
2022-11-12T05:35:44.269Z,12.10
2022-11-12T05:38:31.414Z,12.30
2022-11-12T05:41:20.244Z,10.70
2022-11-12T05:44:09.094Z,12.70
2022-11-12T05:46:56.504Z,12.70
2022-11-12T05:49:45.898Z,13.00
2022-11-12T05:52:32.966Z,12.90
2022-11-12T05:55:19.644Z,12.90
2022-11-12T05:58:07.295Z,12.70
2022-11-12T06:00:56.006Z,12.70
2022-11-12T06:04:01.688Z,12.60
2022-11-12T06:06:49.038Z,12.50
2022-11-12T06:09:36.417Z,12.60
2022-11-12T06:12:25.818Z,12.50
2022-11-12T06:15:13.038Z,12.60
2022-11-12T06:18:01.875Z,12.60
2022-11-12T06:21:09.333Z,12.50
2022-11-12T06:23:59.360Z,12.50
2022-11-12T06:26:48.502Z,12.50
2022-11-12T06:29:35.824Z,12.60
2022-11-12T06:32:22.775Z,12.50
2022-11-12T06:35:11.795Z,12.50
2022-11-12T06:38:17.644Z,12.60
2022-11-12T06:41:05.118Z,12.60
2022-11-12T06:43:52.268Z,12.70
2022-11-12T06:46:39.337Z,12.50
2022-11-12T06:49:26.441Z,12.50
2022-11-12T06:52:16.944Z,12.60
2022-11-12T06:55:04.379Z,12.40
2022-11-12T06:57:53.919Z,12.40
2022-11-12T07:00:41.268Z,12.50
2022-11-12T07:03:28.753Z,12.30
2022-11-12T07:06:20.298Z,12.30
2022-11-12T07:09:09.052Z,12.20
2022-11-12T07:11:56.421Z,12.10
2022-11-12T07:14:43.890Z,12.20
2022-11-12T07:17:51.716Z,12.20
2022-11-12T07:20:39.014Z,12.20
2022-11-12T07:23:26.486Z,12.10
2022-11-12T07:26:17.518Z,12.40
2022-11-12T07:29:04.582Z,12.40
2022-11-12T07:31:52.043Z,12.50
2022-11-12T07:34:39.033Z,12.70
2022-11-12T07:37:44.982Z,12.60
2022-11-12T07:40:32.218Z,12.70
2022-11-12T07:43:21.250Z,12.80
2022-11-12T07:46:11.483Z,12.70
2022-11-12T07:49:01.151Z,12.80
2022-11-12T07:51:48.480Z,12.90
2022-11-12T07:54:35.634Z,13.20
2022-11-12T07:57:41.505Z,13.10
2022-11-12T08:00:30.126Z,13.20
2022-11-12T08:03:36.285Z,13.50
2022-11-12T08:06:23.917Z,13.60
2022-11-12T08:09:11.894Z,14.00
2022-11-12T08:12:01.158Z,13.80
2022-11-12T08:14:48.347Z,13.90
2022-11-12T08:17:41.269Z,13.90
2022-11-12T08:20:28.454Z,14.10
2022-11-12T08:23:15.994Z,14.10
2022-11-12T08:26:04.465Z,14.00
2022-11-12T08:28:51.704Z,14.10
2022-11-12T08:31:38.736Z,14.30
2022-11-12T08:34:29.296Z,14.20
2022-11-12T08:37:16.712Z,14.30
2022-11-12T08:40:04.141Z,14.20
2022-11-12T08:42:58.621Z,14.30
2022-11-12T08:45:46.200Z,14.30
2022-11-12T08:48:34.589Z,14.70
2022-11-12T08:51:23.480Z,14.80
2022-11-12T08:54:10.611Z,14.80
2022-11-12T08:56:58.141Z,14.90
2022-11-12T08:59:45.577Z,15.00
2022-11-12T09:02:32.690Z,15.10
2022-11-12T09:05:20.111Z,15.30
2022-11-12T09:08:10.490Z,15.50
2022-11-12T09:10:59.679Z,15.50
2022-11-12T09:13:49.564Z,15.70
2022-11-12T09:16:36.958Z,15.60
2022-11-12T09:19:24.040Z,15.60
2022-11-12T09:22:11.483Z,15.70
2022-11-12T09:25:00.509Z,15.70
2022-11-12T09:28:06.491Z,15.50
2022-11-12T09:30:55.069Z,15.60
2022-11-12T09:34:01.160Z,15.70
2022-11-12T09:36:48.551Z,15.60
2022-11-12T09:39:35.921Z,15.80
2022-11-12T09:42:43.510Z,15.90
2022-11-12T09:45:32.790Z,15.90
2022-11-12T09:48:42.372Z,16.00
2022-11-12T09:51:33.589Z,16.20
2022-11-12T09:54:26.591Z,16.20
2022-11-12T09:57:51.220Z,16.20
2022-11-12T10:00:45.231Z,16.30
2022-11-12T10:03:40.121Z,16.40
2022-11-12T10:06:50.085Z,16.50
2022-11-12T10:09:45.870Z,16.50
2022-11-12T10:12:47.121Z,16.50
2022-11-12T10:16:02.530Z,16.60
2022-11-12T10:19:04.284Z,16.70
2022-11-12T10:21:58.766Z,16.90
2022-11-12T10:24:46.743Z,16.90
2022-11-12T10:27:41.536Z,17.10
2022-11-12T10:30:28.796Z,17.30
2022-11-12T10:33:36.403Z,17.40
2022-11-12T10:36:30.160Z,17.70
2022-11-12T10:39:35.130Z,17.80
2022-11-12T10:42:23.930Z,17.80
2022-11-12T10:45:22.209Z,17.90
2022-11-12T10:48:29.146Z,18.10
2022-11-12T10:51:29.112Z,18.20
2022-11-12T10:54:31.290Z,18.30
2022-11-12T10:57:23.286Z,18.50
2022-11-12T11:00:19.143Z,18.60
2022-11-12T11:03:16.705Z,18.40
2022-11-12T11:06:06.265Z,18.00
2022-11-12T11:09:09.621Z,17.90
2022-11-12T11:11:56.762Z,17.80
2022-11-12T11:14:44.772Z,17.70
2022-11-12T11:17:34.107Z,17.70
2022-11-12T11:20:25.112Z,17.70
2022-11-12T11:23:21.509Z,18.00
2022-11-12T11:26:26.778Z,18.70
2022-11-12T11:29:45.867Z,18.90
2022-11-12T11:32:56.250Z,19.00
2022-11-12T11:36:06.320Z,19.00
2022-11-12T11:39:03.725Z,18.80
2022-11-12T11:42:06.722Z,18.60
2022-11-12T11:45:01.213Z,18.60
2022-11-12T11:48:01.742Z,18.70
2022-11-12T11:50:58.152Z,19.10
2022-11-12T11:53:53.555Z,19.60
2022-11-12T11:56:44.428Z,19.90
2022-11-12T11:59:58.310Z,19.80
2022-11-12T12:03:17.945Z,19.70
2022-11-12T12:06:19.966Z,19.20
2022-11-12T12:09:24.996Z,19.00
2022-11-12T12:12:23.984Z,18.50
2022-11-12T12:15:43.373Z,18.50
2022-11-12T12:18:41.302Z,18.40
2022-11-12T12:21:34.367Z,18.40
2022-11-12T12:24:46.913Z,18.10
2022-11-12T12:27:39.244Z,18.10
2022-11-12T12:30:45.136Z,18.00
2022-11-12T12:33:39.213Z,18.10
2022-11-12T12:36:46.964Z,18.00
2022-11-12T12:39:47.998Z,18.00
2022-11-12T12:42:41.419Z,18.00
2022-11-12T12:45:37.677Z,18.30
2022-11-12T12:48:30.263Z,18.70
2022-11-12T12:51:19.674Z,18.40
2022-11-12T12:54:27.264Z,18.10
2022-11-12T12:57:33.209Z,18.00
2022-11-12T13:00:33.904Z,18.20
2022-11-12T13:03:51.019Z,18.40
2022-11-12T13:06:58.069Z,18.70
2022-11-12T13:10:18.443Z,19.90
2022-11-12T13:13:08.004Z,20.00
2022-11-12T13:15:56.457Z,19.60
2022-11-12T13:19:02.582Z,19.60
2022-11-12T13:22:30.487Z,19.70
2022-11-12T13:25:30.275Z,19.80
2022-11-12T13:28:17.682Z,19.40
2022-11-12T13:31:06.003Z,19.10
2022-11-12T13:33:53.741Z,19.00
2022-11-12T13:36:41.597Z,18.70
2022-11-12T13:39:29.677Z,18.60
2022-11-12T13:42:37.516Z,18.40
2022-11-12T13:45:27.605Z,18.50
2022-11-12T13:48:19.566Z,18.60
2022-11-12T13:51:14.410Z,18.60
2022-11-12T13:54:01.956Z,18.40
2022-11-12T13:56:49.446Z,18.50
2022-11-12T13:59:38.212Z,18.60
2022-11-12T14:02:28.456Z,18.60
2022-11-12T14:05:17.992Z,18.50
2022-11-12T14:08:29.431Z,18.50
2022-11-12T14:11:46.733Z,18.50
2022-11-12T14:14:51.264Z,18.40
2022-11-12T14:17:45.572Z,18.20
2022-11-12T14:20:37.202Z,18.10
2022-11-12T14:23:26.251Z,16.20
2022-11-12T14:26:15.089Z,18.00
2022-11-12T14:29:02.373Z,17.90
2022-11-12T14:32:03.010Z,17.80
2022-11-12T14:34:50.194Z,17.70
2022-11-12T14:37:43.410Z,17.50
2022-11-12T14:40:34.248Z,17.20
2022-11-12T14:43:27.930Z,19.40
2022-11-12T14:46:27.060Z,17.00
2022-11-12T14:49:21.560Z,16.90
2022-11-12T14:52:31.459Z,16.90
2022-11-12T14:55:22.339Z,16.90
2022-11-12T14:58:33.233Z,16.90
2022-11-12T15:02:08.897Z,16.80
2022-11-12T15:04:40.016Z,16.80
2022-11-12T15:07:29.087Z,16.60
2022-11-12T15:10:39.050Z,16.50
2022-11-12T15:13:28.676Z,16.60
2022-11-12T15:16:24.471Z,16.50
2022-11-12T15:19:21.892Z,16.50
2022-11-12T15:22:23.077Z,16.30
2022-11-12T15:25:38.471Z,16.30
2022-11-12T15:28:27.630Z,16.20
2022-11-12T15:31:20.181Z,15.90
2022-11-12T15:34:27.971Z,15.80
2022-11-12T15:37:26.851Z,15.70
2022-11-12T15:40:18.868Z,15.70
2022-11-12T15:43:13.693Z,15.80
2022-11-12T15:46:01.413Z,17.30
2022-11-12T15:48:54.564Z,15.80
2022-11-12T15:51:43.429Z,15.60
2022-11-12T15:54:34.613Z,15.60
2022-11-12T15:57:29.258Z,15.70
2022-11-12T16:00:35.650Z,15.50
2022-11-12T16:03:24.510Z,15.20
2022-11-12T16:06:13.470Z,15.10
2022-11-12T16:09:00.819Z,15.00
2022-11-12T16:11:51.278Z,15.10
2022-11-12T16:14:38.540Z,14.80
2022-11-12T16:17:25.951Z,14.90
2022-11-12T16:20:18.768Z,14.90
2022-11-12T16:23:06.219Z,14.90
2022-11-12T16:25:53.590Z,14.90
2022-11-12T16:28:42.176Z,15.00
2022-11-12T16:31:29.748Z,14.80
2022-11-12T16:34:17.090Z,14.60
2022-11-12T16:37:04.396Z,14.60
2022-11-12T16:39:51.768Z,14.60
2022-11-12T16:42:45.606Z,14.60
2022-11-12T16:45:37.943Z,14.50
2022-11-12T16:48:25.105Z,14.40
2022-11-12T16:51:18.831Z,14.40
2022-11-12T16:54:06.936Z,14.30
2022-11-12T16:56:55.299Z,14.30
2022-11-12T16:59:42.723Z,14.20
2022-11-12T17:02:32.560Z,14.20
2022-11-12T17:05:39.336Z,14.20
2022-11-12T17:08:33.716Z,13.90
2022-11-12T17:11:21.931Z,13.90
2022-11-12T17:14:09.134Z,13.90
2022-11-12T17:16:56.470Z,14.10
2022-11-12T17:19:45.178Z,14.00
2022-11-12T17:22:32.698Z,14.00
2022-11-12T17:25:20.214Z,14.00
2022-11-12T17:28:07.739Z,15.50
2022-11-12T17:31:04.387Z,14.20
2022-11-12T17:33:53.752Z,14.00
2022-11-12T17:36:43.950Z,14.00
2022-11-12T17:39:34.852Z,14.00
2022-11-12T17:42:22.045Z,14.20
2022-11-12T17:45:10.631Z,14.10
2022-11-12T17:47:58.135Z,14.10
2022-11-12T17:50:45.405Z,14.10
2022-11-12T17:53:34.148Z,14.10
2022-11-12T17:56:40.628Z,14.00
2022-11-12T17:59:28.152Z,14.00
2022-11-12T18:02:32.939Z,14.00
2022-11-12T18:05:20.407Z,14.10
2022-11-12T18:08:07.636Z,14.10
2022-11-12T18:10:56.919Z,13.90
2022-11-12T18:14:01.694Z,14.00
2022-11-12T18:16:49.409Z,14.00
2022-11-12T18:19:36.790Z,13.70
2022-11-12T18:22:24.090Z,13.80
2022-11-12T18:25:11.540Z,13.70
2022-11-12T18:28:00.532Z,13.80
2022-11-12T18:30:48.006Z,13.80
2022-11-12T18:33:53.077Z,13.70
2022-11-12T18:36:40.829Z,13.80
2022-11-12T18:39:28.993Z,13.80
2022-11-12T18:42:16.194Z,13.80
2022-11-12T18:45:05.104Z,13.90
2022-11-12T18:47:52.813Z,13.80
2022-11-12T18:50:40.143Z,13.40
2022-11-12T18:53:28.156Z,13.50
2022-11-12T18:56:17.474Z,13.50
2022-11-12T18:59:21.923Z,13.70
2022-11-12T19:02:12.412Z,13.70
2022-11-12T19:04:59.859Z,13.50
2022-11-12T19:07:47.375Z,13.40
2022-11-12T19:10:34.841Z,13.50
2022-11-12T19:13:22.320Z,13.60
2022-11-12T19:16:11.951Z,13.90
2022-11-12T19:19:00.841Z,13.90
2022-11-12T19:21:49.079Z,13.90
2022-11-12T19:24:36.599Z,13.80
2022-11-12T19:27:24.211Z,13.70
2022-11-12T19:30:12.800Z,13.70
2022-11-12T19:33:17.331Z,13.70
2022-11-12T19:36:09.799Z,13.80
2022-11-12T19:38:58.522Z,13.80
2022-11-12T19:41:46.022Z,13.70
2022-11-12T19:44:33.252Z,13.90
2022-11-12T19:47:20.493Z,13.80
2022-11-12T19:50:10.013Z,14.00
2022-11-12T19:52:59.054Z,14.10
2022-11-12T19:56:03.991Z,14.00
2022-11-12T19:58:57.871Z,14.00
2022-11-12T20:01:45.392Z,14.00
2022-11-12T20:04:33.383Z,13.80
2022-11-12T20:07:20.802Z,13.70
2022-11-12T20:10:12.869Z,13.60
2022-11-12T20:13:17.849Z,13.70
2022-11-12T20:16:08.860Z,13.70
2022-11-12T20:18:58.188Z,13.70
2022-11-12T20:21:45.619Z,13.80
2022-11-12T20:24:32.811Z,14.00
2022-11-12T20:27:21.621Z,13.80
2022-11-12T20:30:10.760Z,13.80
2022-11-12T20:32:58.167Z,13.90
2022-11-12T20:35:45.610Z,13.90
2022-11-12T20:38:33.179Z,13.90
2022-11-12T20:41:22.558Z,13.80
2022-11-12T20:44:11.628Z,13.90
2022-11-12T20:46:59.080Z,13.90
2022-11-12T20:49:46.509Z,13.90
2022-11-12T20:52:33.950Z,13.90
2022-11-12T20:55:21.210Z,14.00
2022-11-12T20:58:08.459Z,14.10
2022-11-12T21:00:57.392Z,14.10
2022-11-12T21:03:45.841Z,14.10
2022-11-12T21:06:33.347Z,14.20
2022-11-12T21:09:20.627Z,14.20
2022-11-12T21:12:08.517Z,13.80
2022-11-12T21:14:56.117Z,14.00
2022-11-12T21:17:44.996Z,14.10
2022-11-12T21:20:32.607Z,14.30
2022-11-12T21:23:20.726Z,14.10
2022-11-12T21:26:13.027Z,14.00
2022-11-12T21:29:00.708Z,14.00
2022-11-12T21:31:49.960Z,14.00
2022-11-12T21:34:38.710Z,13.90
2022-11-12T21:37:26.350Z,13.90
2022-11-12T21:40:14.720Z,13.90
2022-11-12T21:43:02.387Z,14.00
2022-11-12T21:45:49.844Z,14.10
2022-11-12T21:48:55.564Z,14.20
2022-11-12T21:51:44.536Z,14.20
2022-11-12T21:54:32.094Z,14.20
2022-11-12T21:57:19.467Z,14.30
2022-11-12T22:00:39.743Z,14.30
2022-11-12T22:03:15.005Z,14.30
2022-11-12T22:06:02.655Z,14.40
2022-11-12T22:08:53.680Z,14.40
2022-11-12T22:11:41.359Z,14.40
2022-11-12T22:14:29.047Z,14.30
2022-11-12T22:17:16.720Z,14.40
2022-11-12T22:20:04.233Z,14.30
2022-11-12T22:22:53.820Z,14.20
2022-11-12T22:25:42.829Z,14.30
2022-11-12T22:28:47.239Z,14.30
2022-11-12T22:31:35.028Z,14.30
2022-11-12T22:34:22.635Z,14.20
2022-11-12T22:37:10.051Z,14.30
2022-11-12T22:39:57.584Z,14.00
2022-11-12T22:42:46.387Z,13.80
2022-11-12T22:45:35.854Z,13.80
2022-11-12T22:48:23.115Z,13.90
2022-11-12T22:51:14.218Z,13.90
2022-11-12T22:54:03.525Z,13.80
2022-11-12T22:56:50.881Z,14.00
2022-11-12T22:59:39.664Z,13.90
2022-11-12T23:02:27.154Z,13.40
2022-11-12T23:05:14.311Z,13.80
2022-11-12T23:08:01.614Z,13.80
2022-11-12T23:10:48.914Z,13.70
2022-11-12T23:13:36.882Z,13.80
2022-11-12T23:16:27.568Z,13.90
2022-11-12T23:19:15.044Z,13.90
2022-11-12T23:22:07.558Z,14.00
2022-11-12T23:24:55.032Z,13.90
2022-11-12T23:27:42.351Z,13.90
2022-11-12T23:30:29.601Z,13.80
2022-11-12T23:33:18.212Z,13.90
2022-11-12T23:36:07.255Z,13.80
2022-11-12T23:38:55.241Z,13.70
2022-11-12T23:41:42.557Z,13.80
2022-11-12T23:44:29.845Z,13.70
2022-11-12T23:47:17.055Z,13.80
2022-11-12T23:50:06.739Z,13.70
2022-11-12T23:53:12.853Z,13.60
2022-11-12T23:56:00.473Z,13.50
2022-11-12T23:58:48.174Z,13.30
